TimePDT,TemperatureF,Dew PointF,Humidity,Sea Level PressureIn,VisibilityMPH,Wind Direction,Wind SpeedMPH,Gust SpeedMPH,PrecipitationIn,Events,Conditions,WindDirDegrees,DateUTC
12:56 AM,72.0,46.9,41,29.82,10.0,Calm,Calm,-,N/A,,Clear,0,2012-10-03 07:56:00
1:56 AM,69.1,48.9,49,29.83,10.0,Calm,Calm,-,N/A,,Clear,0,2012-10-03 08:56:00
2:56 AM,68.0,48.0,49,29.83,10.0,Calm,Calm,-,N/A,,Clear,0,2012-10-03 09:56:00
3:56 AM,66.9,48.9,52,29.83,10.0,Calm,Calm,-,N/A,,Clear,0,2012-10-03 10:56:00
4:56 AM,64.9,48.9,56,29.84,10.0,Calm,Calm,-,N/A,,Clear,0,2012-10-03 11:56:00
5:56 AM,66.0,50.0,56,29.85,10.0,Calm,Calm,-,N/A,,Clear,0,2012-10-03 12:56:00
6:56 AM,64.0,50.0,60,29.86,10.0,Calm,Calm,-,N/A,,Clear,0,2012-10-03 13:56:00
7:56 AM,64.9,51.1,61,29.88,10.0,Calm,Calm,-,N/A,,Clear,0,2012-10-03 14:56:00
8:56 AM,69.1,55.9,63,29.89,10.0,Calm,Calm,-,N/A,,Clear,0,2012-10-03 15:56:00
9:56 AM,73.9,59.0,59,29.90,10.0,North,3.5,-,N/A,,Clear,350,2012-10-03 16:56:00
10:56 AM,75.9,60.1,58,29.91,10.0,North,4.6,-,N/A,,Clear,10,2012-10-03 17:56:00
11:56 AM,80.1,57.0,45,29.91,10.0,North,9.2,-,N/A,,Clear,350,2012-10-03 18:56:00
12:56 PM,82.9,50.0,32,29.89,10.0,North,8.1,-,N/A,,Clear,350,2012-10-03 19:56:00
1:56 PM,81.0,55.0,41,29.88,10.0,NNW,11.5,-,N/A,,Clear,340,2012-10-03 20:56:00
2:56 PM,81.0,55.9,42,29.88,10.0,NNW,9.2,-,N/A,,Clear,330,2012-10-03 21:56:00
3:56 PM,77.0,57.0,50,29.89,10.0,NNW,9.2,-,N/A,,Clear,330,2012-10-03 22:56:00
4:56 PM,73.0,59.0,61,29.90,10.0,NW,10.4,-,N/A,,Clear,320,2012-10-03 23:56:00
5:56 PM,70.0,57.9,65,29.91,10.0,NW,8.1,17.3,N/A,,Clear,320,2012-10-04 00:56:00
6:56 PM,66.9,57.9,73,29.93,10.0,NNW,6.9,-,N/A,,Clear,330,2012-10-04 01:56:00
7:56 PM,64.9,57.9,78,29.95,10.0,North,8.1,-,N/A,,Clear,350,2012-10-04 02:56:00
8:56 PM,63.0,57.0,81,29.97,10.0,North,4.6,-,N/A,,Clear,360,2012-10-04 03:56:00
9:56 PM,63.0,57.0,81,29.99,10.0,Calm,Calm,-,N/A,,Clear,0,2012-10-04 04:56:00
10:56 PM,62.1,55.9,80,30.00,10.0,NNW,4.6,-,N/A,,Clear,340,2012-10-04 05:56:00
11:56 PM,62.1,57.0,84,30.01,9.0,Calm,Calm,-,N/A,,Clear,0,2012-10-04 06:56:00